Time;durP1;ratioP1;P1;durP2;ratioP2;P2;SDS_P1;SDS_P2;PMS_P1;PMS_P2;Temp;Humidity;BMP_temperature;BMP_pressure;BME280_temperature;BME280_humidity;BME280_pressure;Samples;Min_cycle;Max_cycle;Signal;HPM_P1;HPM_P2
2023/09/17 00:00:37;;;;;;;15.63;14.23;;;22.80;99.90;;;;;;4994298;28;20030;-67
2023/09/17 00:03:03;;;;;;;15.80;14.20;;;22.80;99.90;;;;;;4979177;28;20045;-67
2023/09/17 00:05:32;;;;;;;15.00;13.60;;;22.80;99.90;;;;;;4974807;28;20415;-69
2023/09/17 00:07:57;;;;;;;15.80;14.40;;;22.70;99.90;;;;;;4974952;28;20113;-67
2023/09/17 00:10:23;;;;;;;16.08;14.57;;;22.80;99.90;;;;;;4974435;28;20451;-67
2023/09/17 00:12:53;;;;;;;15.27;13.80;;;22.70;99.90;;;;;;4974864;28;20081;-67
2023/09/17 00:15:19;;;;;;;14.75;13.27;;;22.70;99.90;;;;;;4974670;28;20476;-67
2023/09/17 00:17:45;;;;;;;15.65;14.15;;;22.70;99.90;;;;;;4974834;28;20023;-67
2023/09/17 00:20:12;;;;;;;14.90;13.52;;;22.70;99.90;;;;;;4974197;28;20488;-67
2023/09/17 00:22:38;;;;;;;15.02;13.50;;;22.70;99.90;;;;;;4974325;28;20098;-68
2023/09/17 00:25:05;;;;;;;15.13;13.73;;;22.70;99.90;;;;;;4974578;28;20088;-67
2023/09/17 00:27:32;;;;;;;14.63;13.13;;;22.60;99.90;;;;;;4974367;28;20519;-67
2023/09/17 00:29:57;;;;;;;14.65;13.25;;;22.70;99.90;;;;;;4974552;28;20053;-67
2023/09/17 00:32:23;;;;;;;14.65;12.82;;;22.70;99.90;;;;;;4974429;28;20073;-67
2023/09/17 00:34:49;;;;;;;14.77;13.48;;;22.60;99.90;;;;;;4974447;28;20027;-68
2023/09/17 00:37:14;;;;;;;14.32;12.93;;;22.60;99.90;;;;;;4974083;28;20034;-68
2023/09/17 00:39:40;;;;;;;15.32;13.82;;;22.60;99.90;;;;;;4974487;28;20042;-67
2023/09/17 00:42:06;;;;;;;15.73;14.43;;;22.60;99.90;;;;;;4974654;28;20023;-67
2023/09/17 00:44:32;;;;;;;16.17;14.68;;;22.60;99.90;;;;;;4974222;28;20023;-66
2023/09/17 00:47:00;;;;;;;15.27;13.90;;;22.60;99.90;;;;;;4974462;28;20380;-68
2023/09/17 00:49:27;;;;;;;16.10;14.57;;;22.60;99.90;;;;;;4985469;28;20034;-67
2023/09/17 00:51:52;;;;;;;15.32;13.90;;;22.60;99.90;;;;;;4993500;28;20456;-66
2023/09/17 00:54:21;;;;;;;14.65;13.35;;;22.50;99.90;;;;;;4976123;28;20035;-66
2023/09/17 00:56:49;;;;;;;15.10;13.68;;;22.60;99.90;;;;;;4974454;28;20030;-68
2023/09/17 00:59:14;;;;;;;15.52;13.90;;;22.50;99.90;;;;;;4973787;28;20031;-67
2023/09/17 01:01:42;;;;;;;14.75;13.40;;;22.50;99.90;;;;;;4974178;28;20029;-67
2023/09/17 01:04:08;;;;;;;17.33;15.70;;;22.50;99.90;;;;;;4974342;28;20062;-73
2023/09/17 01:06:36;;;;;;;15.55;14.05;;;22.50;99.90;;;;;;4973881;28;20094;-72
2023/09/17 01:09:02;;;;;;;15.82;14.40;;;22.50;99.90;;;;;;4976220;28;20035;-70
2023/09/17 01:11:28;;;;;;;15.23;13.82;;;22.50;99.90;;;;;;4977764;28;20030;-76
2023/09/17 01:14:12;;;;;;;16.38;14.82;;;22.50;99.90;;;;;;4978392;28;20084;-68
2023/09/17 01:16:41;;;;;;;14.85;13.55;;;22.50;99.90;;;;;;4976848;28;20387;-73
2023/09/17 01:19:15;;;;;;;15.15;13.65;;;22.50;99.90;;;;;;4987642;28;20014;-66
2023/09/17 01:22:20;;;;;;;16.10;14.65;;;22.50;99.90;;;;;;4996825;28;20084;-67
2023/09/17 01:25:42;;;;;;;15.18;13.68;;;22.50;99.90;;;;;;4956986;29;20035;-71
2023/09/17 01:28:11;;;;;;;17.58;14.73;;;22.50;99.90;;;;;;4966839;28;20580;-67
2023/09/17 01:30:41;;;;;;;16.48;14.98;;;22.50;99.90;;;;;;4958214;28;20023;-66
2023/09/17 01:33:09;;;;;;;15.73;14.43;;;22.50;99.90;;;;;;4958675;28;20437;-68
2023/09/17 01:35:41;;;;;;;17.20;15.68;;;22.40;99.90;;;;;;4981011;28;20057;-67
2023/09/17 01:38:09;;;;;;;17.40;15.88;;;22.40;99.90;;;;;;4997090;28;20057;-67
2023/09/17 01:40:37;;;;;;;16.85;15.35;;;22.40;99.90;;;;;;4996773;28;20022;-69
2023/09/17 01:43:04;;;;;;;16.88;15.27;;;22.40;99.90;;;;;;4995732;28;20022;-67
2023/09/17 01:45:31;;;;;;;16.75;15.18;;;22.40;99.90;;;;;;4977904;28;20100;-69
2023/09/17 01:47:57;;;;;;;16.92;14.95;;;22.30;99.90;;;;;;4977527;28;20034;-66
2023/09/17 01:50:24;;;;;;;16.75;15.20;;;22.40;99.90;;;;;;4976436;28;20031;-68
2023/09/17 01:52:51;;;;;;;16.80;15.15;;;22.30;99.90;;;;;;4980605;28;20026;-68
2023/09/17 01:55:17;;;;;;;16.63;15.10;;;22.30;99.90;;;;;;4996890;28;20026;-68
2023/09/17 01:57:43;;;;;;;17.20;15.60;;;22.30;99.90;;;;;;4996562;28;20472;-71
2023/09/17 02:00:14;;;;;;;17.55;15.82;;;22.30;99.90;;;;;;4996596;28;20030;-67
2023/09/17 02:02:58;;;;;;;16.70;15.10;;;22.30;99.90;;;;;;4977155;28;20234;-67
2023/09/17 02:05:25;;;;;;;17.02;15.35;;;22.40;99.90;;;;;;4977013;28;20023;-68
2023/09/17 02:07:51;;;;;;;16.67;15.25;;;22.40;99.90;;;;;;4976906;28;20035;-67
2023/09/17 02:10:18;;;;;;;16.85;15.15;;;22.30;99.90;;;;;;4990640;28;20105;-67
2023/09/17 02:12:43;;;;;;;17.05;15.38;;;22.30;99.90;;;;;;4996319;28;20506;-68
2023/09/17 02:15:09;;;;;;;16.20;14.63;;;22.30;99.90;;;;;;4996623;28;20026;-67
2023/09/17 02:17:35;;;;;;;16.90;15.30;;;22.30;99.90;;;;;;4992410;28;20027;-67
2023/09/17 02:20:00;;;;;;;17.55;15.82;;;22.20;99.90;;;;;;4974923;28;20047;-67
2023/09/17 02:22:26;;;;;;;17.85;16.08;;;22.20;99.90;;;;;;4976626;28;20035;-67
2023/09/17 02:24:52;;;;;;;17.73;16.05;;;22.20;99.90;;;;;;4976845;28;20019;-70
2023/09/17 02:27:17;;;;;;;17.55;15.55;;;22.20;99.90;;;;;;4976754;28;20465;-67
2023/09/17 02:29:43;;;;;;;17.55;15.75;;;22.20;99.90;;;;;;4976719;28;20542;-68
2023/09/17 02:32:10;;;;;;;16.83;15.15;;;22.20;99.90;;;;;;4976540;28;20481;-73
2023/09/17 02:34:37;;;;;;;17.05;15.48;;;22.10;99.90;;;;;;4976463;28;20113;-67
2023/09/17 02:37:02;;;;;;;18.00;16.17;;;22.10;99.90;;;;;;4976524;28;20588;-69
2023/09/17 02:39:28;;;;;;;16.98;15.38;;;22.10;99.90;;;;;;4976711;28;20106;-67
2023/09/17 02:41:55;;;;;;;17.58;16.08;;;22.10;99.90;;;;;;4976363;28;20473;-67
2023/09/17 02:44:21;;;;;;;16.77;15.25;;;22.10;99.90;;;;;;4976461;28;20022;-67
2023/09/17 02:46:47;;;;;;;18.10;16.30;;;22.10;99.90;;;;;;4989460;28;20603;-67
2023/09/17 02:49:12;;;;;;;18.05;16.25;;;22.10;99.90;;;;;;4995495;28;20111;-67
2023/09/17 02:51:39;;;;;;;16.92;15.52;;;22.10;99.90;;;;;;4991362;28;20083;-67
2023/09/17 02:54:04;;;;;;;17.48;16.08;;;22.10;99.90;;;;;;4976231;28;20580;-67
2023/09/17 02:56:30;;;;;;;17.80;16.17;;;22.10;99.90;;;;;;4976276;28;20027;-67
2023/09/17 02:58:56;;;;;;;18.27;16.63;;;22.10;99.90;;;;;;4976055;28;20036;-67
2023/09/17 03:01:23;;;;;;;17.80;16.30;;;22.00;99.90;;;;;;4975993;28;20102;-67
2023/09/17 03:03:49;;;;;;;18.23;16.55;;;22.00;99.90;;;;;;4975764;28;20518;-68
2023/09/17 03:06:15;;;;;;;16.88;15.43;;;22.00;99.90;;;;;;4976075;28;20019;-76
2023/09/17 03:08:41;;;;;;;18.52;16.65;;;22.00;99.90;;;;;;4973267;28;20752;-77
2023/09/17 03:11:10;;;;;;;17.83;16.13;;;22.00;99.90;;;;;;4970369;28;20431;-77
2023/09/17 03:13:36;;;;;;;17.92;16.30;;;22.00;99.90;;;;;;4973910;28;20066;-68
2023/09/17 03:16:01;;;;;;;16.83;15.35;;;21.90;99.90;;;;;;4973177;28;20472;-73
2023/09/17 03:18:27;;;;;;;18.13;16.25;;;21.90;99.90;;;;;;4975299;28;20042;-67
2023/09/17 03:20:53;;;;;;;18.40;16.73;;;22.00;99.90;;;;;;4975530;28;20058;-67
2023/09/17 03:23:18;;;;;;;16.80;15.30;;;21.90;99.90;;;;;;4975701;28;20026;-68
2023/09/17 03:25:44;;;;;;;18.35;16.52;;;21.90;99.90;;;;;;4975457;28;20461;-66
2023/09/17 03:28:11;;;;;;;17.60;16.00;;;21.90;99.90;;;;;;4975502;28;20081;-67
2023/09/17 03:30:38;;;;;;;17.55;15.95;;;21.90;99.90;;;;;;4975352;28;20038;-69
2023/09/17 03:33:05;;;;;;;17.75;15.98;;;21.90;99.90;;;;;;4974877;28;20026;-68
2023/09/17 03:35:33;;;;;;;18.83;17.02;;;21.90;99.90;;;;;;4975543;28;20023;-66
2023/09/17 03:37:58;;;;;;;18.75;17.05;;;21.90;99.90;;;;;;4975240;28;20093;-68
2023/09/17 03:40:24;;;;;;;18.17;16.52;;;21.90;99.90;;;;;;4975089;28;20026;-67
2023/09/17 03:42:50;;;;;;;19.60;17.95;;;21.80;99.90;;;;;;4973237;28;20106;-67
2023/09/17 03:45:15;;;;;;;18.33;16.67;;;21.80;99.90;;;;;;4983616;28;20156;-68
2023/09/17 03:47:43;;;;;;;18.98;17.27;;;21.80;99.90;;;;;;4983394;28;20109;-67
2023/09/17 03:50:09;;;;;;;18.88;17.25;;;21.80;99.90;;;;;;4992907;28;20480;-67
2023/09/17 03:52:37;;;;;;;19.63;17.70;;;21.80;99.90;;;;;;4974570;28;20075;-67
2023/09/17 03:55:07;;;;;;;19.05;17.35;;;21.80;99.90;;;;;;4972830;28;20295;-67
2023/09/17 03:57:35;;;;;;;18.55;16.92;;;21.80;99.90;;;;;;4971891;28;20551;-67
2023/09/17 04:00:10;;;;;;;18.17;16.58;;;21.80;99.90;;;;;;4974167;28;20030;-67
2023/09/17 04:02:36;;;;;;;18.77;17.17;;;21.70;99.90;;;;;;4975110;28;20031;-67
2023/09/17 04:05:13;;;;;;;20.10;18.27;;;21.70;99.90;;;;;;4973748;28;20019;-76
2023/09/17 04:07:41;;;;;;;18.83;17.33;;;21.70;99.90;;;;;;4975053;28;20018;-67
2023/09/17 04:10:07;;;;;;;19.73;17.83;;;21.70;99.90;;;;;;4974724;28;20472;-67
2023/09/17 04:12:34;;;;;;;21.00;18.85;;;21.70;99.90;;;;;;4974988;28;20023;-67
2023/09/17 04:15:00;;;;;;;19.33;17.50;;;21.70;99.90;;;;;;4974468;28;20022;-67
2023/09/17 04:17:26;;;;;;;18.67;17.00;;;21.70;99.90;;;;;;4974852;28;20027;-67
2023/09/17 04:19:52;;;;;;;20.02;18.23;;;21.70;99.90;;;;;;4974387;28;20046;-67
2023/09/17 04:22:18;;;;;;;20.27;18.30;;;21.70;99.90;;;;;;4974744;28;20114;-67
2023/09/17 04:24:44;;;;;;;20.33;18.35;;;21.70;99.90;;;;;;4974592;28;20105;-67
2023/09/17 04:27:11;;;;;;;19.83;17.92;;;21.70;99.90;;;;;;4974868;28;20058;-68
2023/09/17 04:29:37;;;;;;;21.77;19.58;;;21.70;99.90;;;;;;4974128;28;20035;-67
2023/09/17 04:32:03;;;;;;;21.10;19.13;;;21.70;99.90;;;;;;4974440;28;20109;-72
2023/09/17 04:34:29;;;;;;;21.67;19.88;;;21.60;99.90;;;;;;4974647;28;20019;-67
2023/09/17 04:36:58;;;;;;;21.02;19.02;;;21.60;99.90;;;;;;4974428;28;20038;-67
2023/09/17 04:39:25;;;;;;;19.98;18.08;;;21.60;99.90;;;;;;4974432;28;20026;-68
2023/09/17 04:41:50;;;;;;;21.63;19.52;;;21.60;99.90;;;;;;4974379;28;20027;-67
2023/09/17 04:44:16;;;;;;;20.92;19.13;;;21.60;99.90;;;;;;4974077;28;20054;-73
2023/09/17 04:46:43;;;;;;;20.50;18.67;;;21.60;99.90;;;;;;4974782;28;20026;-67
2023/09/17 04:49:09;;;;;;;21.23;19.17;;;21.60;99.90;;;;;;4974360;28;20035;-67
2023/09/17 04:51:35;;;;;;;22.05;20.10;;;21.60;99.90;;;;;;4974240;28;20022;-67
2023/09/17 04:54:01;;;;;;;21.02;19.00;;;21.60;99.90;;;;;;4974288;28;20061;-68
2023/09/17 04:56:27;;;;;;;19.75;17.85;;;21.50;99.90;;;;;;4974316;28;20030;-67
2023/09/17 04:58:53;;;;;;;20.48;18.75;;;21.60;99.90;;;;;;4974090;28;20023;-67
2023/09/17 05:01:18;;;;;;;21.25;19.35;;;21.60;99.90;;;;;;4964230;28;20469;-68
2023/09/17 05:03:46;;;;;;;20.70;18.80;;;21.50;99.90;;;;;;4955112;29;20113;-67
2023/09/17 05:06:12;;;;;;;22.60;20.27;;;21.50;99.90;;;;;;4954334;29;20412;-67
2023/09/17 05:08:38;;;;;;;21.30;19.35;;;21.50;99.90;;;;;;4936798;29;20035;-67
2023/09/17 05:11:05;;;;;;;20.52;18.63;;;21.40;99.90;;;;;;4954845;29;20380;-67
2023/09/17 05:13:31;;;;;;;20.63;18.88;;;21.40;99.90;;;;;;4954605;29;20034;-67
2023/09/17 05:15:57;;;;;;;20.42;18.45;;;21.40;99.90;;;;;;4954761;29;20020;-66
2023/09/17 05:18:23;;;;;;;21.02;19.23;;;21.30;99.90;;;;;;4954805;29;20041;-66
2023/09/17 05:20:49;;;;;;;21.30;19.15;;;21.40;99.90;;;;;;4954516;28;20477;-77
2023/09/17 05:23:16;;;;;;;19.98;18.17;;;21.40;99.90;;;;;;4954833;29;20107;-67
2023/09/17 05:25:41;;;;;;;19.13;17.33;;;21.40;99.90;;;;;;4937476;29;20029;-68
2023/09/17 05:28:07;;;;;;;21.10;19.25;;;21.40;99.90;;;;;;4954568;29;20388;-67
2023/09/17 05:30:37;;;;;;;21.42;19.40;;;21.40;99.90;;;;;;4954428;29;20038;-67
2023/09/17 05:33:06;;;;;;;21.23;19.25;;;21.40;99.90;;;;;;4954915;29;20027;-78
2023/09/17 05:35:36;;;;;;;21.50;19.30;;;21.40;99.90;;;;;;4954451;29;20505;-67
2023/09/17 05:38:02;;;;;;;19.58;17.88;;;21.40;99.90;;;;;;4954685;29;20026;-67
2023/09/17 05:40:28;;;;;;;23.88;18.90;;;21.30;99.90;;;;;;4954568;29;20074;-67
2023/09/17 05:42:53;;;;;;;18.75;17.13;;;21.40;99.90;;;;;;4954417;29;20034;-69
2023/09/17 05:45:19;;;;;;;19.27;17.58;;;21.30;99.90;;;;;;4954707;29;20073;-67
2023/09/17 05:47:45;;;;;;;19.52;17.70;;;21.30;99.90;;;;;;4954397;29;20027;-66
2023/09/17 05:50:11;;;;;;;20.25;18.55;;;21.30;99.90;;;;;;4954473;29;21051;-67
2023/09/17 05:52:37;;;;;;;20.23;18.35;;;21.30;99.90;;;;;;4954715;29;20038;-68
2023/09/17 05:55:06;;;;;;;20.60;18.80;;;21.30;99.90;;;;;;4956133;28;20456;-67
2023/09/17 05:57:32;;;;;;;19.50;17.92;;;21.30;99.90;;;;;;4957792;29;20024;-68
2023/09/17 05:59:59;;;;;;;20.30;18.50;;;21.30;99.90;;;;;;4957993;29;20024;-78
2023/09/17 06:02:25;;;;;;;20.20;18.05;;;21.30;99.90;;;;;;4957793;29;20023;-67
2023/09/17 06:04:53;;;;;;;21.15;19.10;;;21.30;99.90;;;;;;4957732;29;20035;-67
2023/09/17 06:07:21;;;;;;;20.35;18.55;;;21.30;99.90;;;;;;4957904;29;20051;-67
2023/09/17 06:09:47;;;;;;;21.40;19.48;;;21.30;99.90;;;;;;4957741;29;20106;-70
2023/09/17 06:12:13;;;;;;;20.15;18.35;;;21.30;99.90;;;;;;4957503;29;20461;-67
2023/09/17 06:14:39;;;;;;;20.35;18.42;;;21.30;99.90;;;;;;4957806;29;20515;-67
2023/09/17 06:17:05;;;;;;;20.48;18.48;;;21.30;99.90;;;;;;4957539;28;20127;-67
2023/09/17 06:19:33;;;;;;;20.67;18.77;;;21.30;99.90;;;;;;4957566;28;20106;-67
2023/09/17 06:21:59;;;;;;;21.15;19.25;;;21.30;99.90;;;;;;4957348;29;20051;-67
2023/09/17 06:24:25;;;;;;;21.08;19.17;;;21.30;99.90;;;;;;4957559;29;20035;-67
2023/09/17 06:26:51;;;;;;;20.85;18.92;;;21.30;99.90;;;;;;4957049;29;20523;-67
2023/09/17 06:29:16;;;;;;;20.83;18.73;;;21.30;99.90;;;;;;4957497;29;20039;-66
2023/09/17 06:31:42;;;;;;;20.42;18.55;;;21.30;99.90;;;;;;4957226;29;20039;-66
2023/09/17 06:34:09;;;;;;;20.08;18.20;;;21.30;99.90;;;;;;4957441;29;20030;-67
2023/09/17 06:36:35;;;;;;;20.48;18.50;;;21.30;99.90;;;;;;4957197;29;20046;-66
2023/09/17 06:39:03;;;;;;;20.52;18.50;;;21.30;99.90;;;;;;4957314;29;20028;-66
2023/09/17 06:41:28;;;;;;;20.42;18.25;;;21.30;99.90;;;;;;4957011;29;20031;-66
2023/09/17 06:43:54;;;;;;;21.27;19.40;;;21.20;99.90;;;;;;4957088;29;20023;-67
2023/09/17 06:46:22;;;;;;;22.20;20.20;;;21.30;99.90;;;;;;4957221;29;20031;-66
2023/09/17 06:48:47;;;;;;;22.40;20.40;;;21.30;99.90;;;;;;4939741;29;20039;-67
2023/09/17 06:51:13;;;;;;;21.70;19.60;;;21.30;99.90;;;;;;4956933;29;20119;-70
2023/09/17 06:53:39;;;;;;;21.38;19.58;;;21.20;99.90;;;;;;4956868;29;20082;-66
2023/09/17 06:56:05;;;;;;;21.58;19.63;;;21.20;99.90;;;;;;4956671;29;20110;-67
2023/09/17 06:58:31;;;;;;;21.35;19.42;;;21.20;99.90;;;;;;4938382;29;20444;-67
2023/09/17 07:00:56;;;;;;;22.25;19.80;;;21.30;99.90;;;;;;4954703;28;20023;-70
2023/09/17 07:03:22;;;;;;;19.75;17.95;;;21.30;99.90;;;;;;4944802;29;20131;-66
2023/09/17 07:05:48;;;;;;;21.42;19.42;;;21.30;99.90;;;;;;4947628;28;20027;-66
2023/09/17 07:08:14;;;;;;;25.08;22.73;;;21.30;99.90;;;;;;4953053;28;20031;-64
2023/09/17 07:10:39;;;;;;;23.58;21.38;;;21.30;99.90;;;;;;4955514;28;20062;-64
2023/09/17 07:13:05;;;;;;;24.20;22.08;;;21.40;99.90;;;;;;4952021;28;20477;-65
2023/09/17 07:15:31;;;;;;;28.58;25.67;;;21.40;99.90;;;;;;4955330;28;20070;-66
2023/09/17 07:17:56;;;;;;;31.50;28.42;;;21.40;99.90;;;;;;4952874;28;20122;-67
2023/09/17 07:20:22;;;;;;;32.95;29.52;;;21.40;99.90;;;;;;4960291;28;20031;-68
2023/09/17 07:22:48;;;;;;;30.45;27.48;;;21.30;99.90;;;;;;4971124;28;20757;-68
2023/09/17 07:25:14;;;;;;;34.17;30.45;;;21.30;99.90;;;;;;4973820;28;20037;-78
2023/09/17 07:27:40;;;;;;;32.65;29.65;;;21.20;99.90;;;;;;4972227;28;20042;-72
2023/09/17 07:30:06;;;;;;;37.13;33.08;;;21.30;99.90;;;;;;4974420;28;20472;-68
2023/09/17 07:32:32;;;;;;;33.10;29.70;;;21.30;99.90;;;;;;4974605;28;20023;-67
2023/09/17 07:35:01;;;;;;;34.88;31.02;;;21.20;99.90;;;;;;4974962;28;20031;-66
2023/09/17 07:37:26;;;;;;;39.47;35.38;;;21.20;99.90;;;;;;4975306;28;20022;-66
2023/09/17 07:40:04;;;;;;;40.88;36.33;;;21.20;99.90;;;;;;4973298;28;20027;-65
2023/09/17 07:42:30;;;;;;;38.15;34.28;;;21.30;99.90;;;;;;4983523;28;20026;-66
2023/09/17 07:44:56;;;;;;;48.97;39.28;;;21.20;99.90;;;;;;4972118;28;20031;-66
2023/09/17 07:47:22;;;;;;;40.97;35.72;;;21.30;99.90;;;;;;4972703;28;20357;-67
2023/09/17 07:49:48;;;;;;;32.80;29.55;;;21.20;99.90;;;;;;4986832;28;20395;-66
2023/09/17 07:52:13;;;;;;;32.75;28.80;;;21.30;99.90;;;;;;4978624;28;20026;-67
2023/09/17 07:54:40;;;;;;;35.85;32.00;;;21.30;99.90;;;;;;4973682;28;20113;-67
2023/09/17 07:57:07;;;;;;;52.67;41.92;;;21.30;99.90;;;;;;4983031;28;20431;-66
2023/09/17 07:59:32;;;;;;;52.08;42.65;;;21.30;99.90;;;;;;4994085;28;20034;-66
2023/09/17 08:01:58;;;;;;;53.75;43.50;;;21.30;99.90;;;;;;4981898;28;20042;-67
2023/09/17 08:04:25;;;;;;;53.63;40.60;;;21.30;99.90;;;;;;4975469;28;20165;-77
2023/09/17 08:06:51;;;;;;;48.90;39.42;;;21.30;99.90;;;;;;4974464;28;20158;-66
2023/09/17 08:09:17;;;;;;;50.45;41.85;;;21.30;99.90;;;;;;4972572;28;20038;-66
2023/09/17 08:11:43;;;;;;;49.28;41.10;;;21.30;99.90;;;;;;4973075;28;20110;-71
2023/09/17 08:14:09;;;;;;;57.42;42.30;;;21.30;99.90;;;;;;4953971;28;20484;-68
2023/09/17 08:16:35;;;;;;;62.30;44.25;;;21.30;99.90;;;;;;4959632;28;20030;-72
2023/09/17 08:19:01;;;;;;;57.20;42.85;;;21.30;99.90;;;;;;4974395;28;20035;-67
2023/09/17 08:21:27;;;;;;;58.17;42.42;;;21.30;99.90;;;;;;4965803;28;20035;-67
2023/09/17 08:23:53;;;;;;;63.47;45.40;;;21.30;99.90;;;;;;4953100;29;20083;-67
2023/09/17 08:26:21;;;;;;;59.90;44.15;;;21.30;99.90;;;;;;4961212;28;20030;-67
2023/09/17 08:28:49;;;;;;;61.33;43.35;;;21.30;99.90;;;;;;4938175;29;20551;-67
2023/09/17 08:31:16;;;;;;;55.05;42.30;;;21.30;99.90;;;;;;4953862;28;20468;-68
2023/09/17 08:33:42;;;;;;;60.00;43.20;;;21.30;99.90;;;;;;4954463;29;20396;-67
2023/09/17 08:36:09;;;;;;;70.20;49.05;;;21.30;99.90;;;;;;4954906;28;20477;-66
2023/09/17 08:38:36;;;;;;;67.10;48.22;;;21.30;99.90;;;;;;4956224;28;20098;-66
2023/09/17 08:41:03;;;;;;;62.08;46.03;;;21.30;99.90;;;;;;4959283;28;20114;-73
2023/09/17 08:43:29;;;;;;;63.83;48.55;;;21.40;99.90;;;;;;4953206;29;20039;-67
2023/09/17 08:45:56;;;;;;;69.00;47.97;;;21.40;99.90;;;;;;4955798;28;20445;-70
2023/09/17 08:48:22;;;;;;;59.83;44.42;;;21.40;99.90;;;;;;4952904;29;20082;-67
2023/09/17 08:50:50;;;;;;;64.93;47.13;;;21.50;99.90;;;;;;4953380;29;20514;-72
2023/09/17 08:53:22;;;;;;;64.20;46.63;;;21.50;99.90;;;;;;4953797;28;20027;-68
2023/09/17 08:55:54;;;;;;;69.43;49.28;;;21.50;99.90;;;;;;4956187;28;20019;-75
2023/09/17 08:58:25;;;;;;;60.40;44.70;;;21.50;99.90;;;;;;4953623;28;20492;-74
2023/09/17 09:00:55;;;;;;;64.95;48.00;;;21.50;99.90;;;;;;4957047;28;20034;-71
2023/09/17 09:03:25;;;;;;;66.57;48.92;;;21.50;99.90;;;;;;4953660;28;20039;-68
2023/09/17 09:05:55;;;;;;;64.93;49.25;;;21.50;99.90;;;;;;4958699;28;20023;-70
2023/09/17 09:08:21;;;;;;;67.00;48.00;;;21.50;99.90;;;;;;4954998;28;20039;-68
2023/09/17 09:10:47;;;;;;;66.18;51.17;;;21.50;99.90;;;;;;4954256;28;20031;-68
2023/09/17 09:13:13;;;;;;;68.63;48.10;;;21.50;99.90;;;;;;4952071;29;20043;-71
2023/09/17 09:15:39;;;;;;;61.95;47.08;;;21.60;99.90;;;;;;4950879;28;20028;-70
2023/09/17 09:18:05;;;;;;;53.63;42.25;;;21.60;99.90;;;;;;4952984;28;20019;-69
2023/09/17 09:20:31;;;;;;;52.80;38.85;;;21.60;99.90;;;;;;4961272;28;20420;-70
2023/09/17 09:22:56;;;;;;;47.42;39.30;;;21.60;99.90;;;;;;4978522;28;20031;-71
2023/09/17 09:25:25;;;;;;;44.53;36.42;;;21.60;99.90;;;;;;4970906;28;20476;-68
2023/09/17 09:27:51;;;;;;;51.63;39.90;;;21.60;99.90;;;;;;4970706;28;20097;-69
2023/09/17 09:30:17;;;;;;;50.55;38.92;;;21.60;99.90;;;;;;4974816;28;20035;-74
2023/09/17 09:32:43;;;;;;;52.53;39.40;;;21.60;99.90;;;;;;4975249;28;20030;-68
2023/09/17 09:35:09;;;;;;;50.63;40.72;;;21.60;99.90;;;;;;4969722;28;20074;-68
2023/09/17 09:37:35;;;;;;;58.65;45.38;;;21.60;99.90;;;;;;4974347;28;20054;-68
2023/09/17 09:40:02;;;;;;;58.80;45.00;;;21.60;99.90;;;;;;4974398;28;20062;-69
2023/09/17 09:42:28;;;;;;;63.72;45.83;;;21.70;99.90;;;;;;4976787;28;20436;-68
2023/09/17 09:44:54;;;;;;;58.85;44.83;;;21.70;99.90;;;;;;4975926;28;20050;-69
2023/09/17 09:47:22;;;;;;;63.53;45.45;;;21.70;99.90;;;;;;4978217;28;20022;-68
2023/09/17 09:49:48;;;;;;;62.75;47.80;;;21.70;99.90;;;;;;4975208;28;20041;-68
2023/09/17 09:52:15;;;;;;;62.15;48.70;;;21.70;99.90;;;;;;4975286;28;20054;-68
2023/09/17 09:54:42;;;;;;;66.43;49.92;;;21.70;99.90;;;;;;4970194;28;20420;-67
2023/09/17 09:57:11;;;;;;;63.67;47.75;;;21.80;99.90;;;;;;4971403;28;20033;-67
2023/09/17 09:59:37;;;;;;;75.45;53.92;;;21.70;99.90;;;;;;4973928;28;20104;-68
2023/09/17 10:02:04;;;;;;;79.07;57.28;;;21.70;99.90;;;;;;4975134;28;20038;-70
2023/09/17 10:04:30;;;;;;;78.80;57.28;;;21.80;99.90;;;;;;4974018;28;20019;-68
2023/09/17 10:06:56;;;;;;;81.68;57.83;;;21.80;99.90;;;;;;4975220;28;20035;-69
2023/09/17 10:09:25;;;;;;;76.32;55.03;;;21.80;99.90;;;;;;4975095;28;20102;-69
2023/09/17 10:11:54;;;;;;;78.43;56.20;;;21.80;99.90;;;;;;4975482;28;20054;-68
2023/09/17 10:14:24;;;;;;;79.07;56.50;;;21.80;99.90;;;;;;4971726;28;20496;-68
2023/09/17 10:16:49;;;;;;;75.55;56.08;;;21.80;99.90;;;;;;4971769;28;20480;-68
2023/09/17 10:19:20;;;;;;;74.57;51.85;;;21.80;99.90;;;;;;4973019;28;20037;-71
2023/09/17 10:21:50;;;;;;;72.68;52.72;;;21.80;99.90;;;;;;4972223;28;20038;-66
2023/09/17 10:24:18;;;;;;;71.32;52.97;;;21.90;99.90;;;;;;4973021;28;20030;-68
2023/09/17 10:26:45;;;;;;;72.22;51.85;;;21.80;99.90;;;;;;4975112;28;20030;-68
2023/09/17 10:29:13;;;;;;;67.65;50.72;;;21.90;99.90;;;;;;4974116;28;20035;-70
2023/09/17 10:31:40;;;;;;;64.85;50.05;;;21.90;99.90;;;;;;4971392;28;20027;-69
2023/09/17 10:34:08;;;;;;;65.90;49.47;;;21.90;99.90;;;;;;4974007;28;20034;-68
2023/09/17 10:36:36;;;;;;;65.22;50.20;;;21.90;99.90;;;;;;4969929;28;20483;-68
2023/09/17 10:39:03;;;;;;;58.65;47.50;;;21.90;99.90;;;;;;4971299;28;20088;-68
2023/09/17 10:41:32;;;;;;;71.93;61.15;;;22.00;99.90;;;;;;4973496;28;20030;-69
2023/09/17 10:43:59;;;;;;;68.18;56.80;;;22.00;99.90;;;;;;4970856;28;20027;-70
2023/09/17 10:46:27;;;;;;;66.63;50.42;;;22.00;99.90;;;;;;4971259;28;20146;-69
2023/09/17 10:48:54;;;;;;;71.20;58.25;;;22.00;99.90;;;;;;4970645;28;20046;-69
2023/09/17 10:51:20;;;;;;;69.32;54.38;;;22.00;99.90;;;;;;4971982;28;20087;-69
2023/09/17 10:53:46;;;;;;;61.65;50.22;;;22.00;99.90;;;;;;4972212;28;20034;-69
2023/09/17 10:56:13;;;;;;;62.53;48.72;;;22.00;99.90;;;;;;4963471;28;20043;-68
2023/09/17 10:58:48;;;;;;;56.08;43.45;;;22.10;99.90;;;;;;4971230;28;20043;-68
2023/09/17 11:01:26;;;;;;;61.47;46.80;;;22.10;99.90;;;;;;4970825;28;20492;-68
2023/09/17 11:04:01;;;;;;;55.63;41.58;;;22.10;99.90;;;;;;4967980;28;20030;-70
2023/09/17 11:06:28;;;;;;;66.93;53.33;;;22.10;99.90;;;;;;4971849;28;20062;-68
2023/09/17 11:08:55;;;;;;;54.45;41.78;;;22.20;99.90;;;;;;4966804;28;20272;-70
2023/09/17 11:11:23;;;;;;;50.83;37.28;;;22.20;99.90;;;;;;4966261;28;20034;-69
2023/09/17 11:13:51;;;;;;;49.28;37.80;;;22.20;99.90;;;;;;4971829;28;20089;-70
2023/09/17 11:16:18;;;;;;;45.03;36.03;;;22.20;99.90;;;;;;4971134;28;20082;-68
2023/09/17 11:19:19;;;;;;;42.33;32.95;;;22.20;99.90;;;;;;4970742;28;20031;-68
2023/09/17 11:21:50;;;;;;;39.20;31.95;;;22.30;99.90;;;;;;4958305;28;20039;-68
2023/09/17 11:24:19;;;;;;;36.38;30.67;;;22.30;99.90;;;;;;4971333;28;20060;-70
2023/09/17 11:26:45;;;;;;;38.90;31.13;;;22.30;99.90;;;;;;4970846;28;20492;-70
2023/09/17 11:29:12;;;;;;;41.00;32.45;;;22.30;99.90;;;;;;4970568;28;20039;-69
2023/09/17 11:31:53;;;;;;;40.25;31.83;;;22.40;99.90;;;;;;4970433;28;20077;-70
2023/09/17 11:34:21;;;;;;;35.67;30.40;;;22.40;99.90;;;;;;4967822;28;20484;-69
2023/09/17 11:36:47;;;;;;;33.15;27.75;;;22.40;99.90;;;;;;4970210;28;20023;-72
2023/09/17 11:39:20;;;;;;;29.23;25.98;;;22.40;99.90;;;;;;4970120;28;20042;-70
2023/09/17 11:41:48;;;;;;;30.30;24.45;;;22.40;99.90;;;;;;4970967;28;20019;-70
2023/09/17 11:44:15;;;;;;;34.25;25.10;;;22.40;99.90;;;;;;4966442;28;20026;-70
2023/09/17 11:46:42;;;;;;;32.70;25.88;;;22.50;99.90;;;;;;4969947;28;20045;-70
2023/09/17 11:49:09;;;;;;;30.60;25.02;;;22.50;99.90;;;;;;4971711;28;20035;-70
2023/09/17 11:51:40;;;;;;;26.70;22.75;;;22.50;99.90;;;;;;4967259;28;20027;-70
2023/09/17 11:54:08;;;;;;;29.75;24.65;;;22.50;99.90;;;;;;4966777;28;20027;-70
2023/09/17 11:56:46;;;;;;;27.42;22.90;;;22.50;99.90;;;;;;4968110;28;20113;-70
2023/09/17 11:59:15;;;;;;;25.95;20.88;;;22.60;99.90;;;;;;4960352;28;20538;-70
2023/09/17 12:01:43;;;;;;;25.48;21.50;;;22.60;99.90;;;;;;4967269;28;20052;-69
2023/09/17 12:04:10;;;;;;;24.80;19.90;;;22.60;99.90;;;;;;4965336;28;20114;-70
2023/09/17 12:06:39;;;;;;;22.83;18.92;;;22.60;99.90;;;;;;4969041;28;20129;-73
2023/09/17 12:09:15;;;;;;;21.30;17.90;;;22.60;99.90;;;;;;4966290;28;20042;-69
2023/09/17 12:11:42;;;;;;;21.88;17.05;;;22.70;99.90;;;;;;4972202;28;20559;-69
2023/09/17 12:14:08;;;;;;;19.55;16.63;;;22.70;99.90;;;;;;4969068;28;20535;-75
2023/09/17 12:16:34;;;;;;;16.55;14.75;;;22.70;99.90;;;;;;4969553;28;20069;-75
2023/09/17 12:19:00;;;;;;;22.13;15.73;;;22.70;99.90;;;;;;4968878;28;20050;-71
2023/09/17 12:21:27;;;;;;;30.00;16.13;;;22.70;99.90;;;;;;4950016;28;20507;-71
2023/09/17 12:24:06;;;;;;;23.42;14.57;;;22.70;99.90;;;;;;4933475;29;20495;-68
2023/09/17 12:26:45;;;;;;;18.33;14.52;;;22.70;99.90;;;;;;4949982;28;20046;-71
2023/09/17 12:29:11;;;;;;;18.42;15.25;;;22.70;99.90;;;;;;4944106;29;20031;-72